Time;durP1;ratioP1;P1;durP2;ratioP2;P2;SDS_P1;SDS_P2;PMS_P1;PMS_P2;Temp;Humidity;BMP_temperature;BMP_pressure;BME280_temperature;BME280_humidity;BME280_pressure;Samples;Min_cycle;Max_cycle;Signal;HPM_P1;HPM_P2
2022/03/31 00:01:22;;;;;;;6.45;3.80;;;;;;;1.05;100.00;100394.88;4986230;28;20035;-65
2022/03/31 00:03:48;;;;;;;5.28;3.45;;;;;;;1.07;100.00;100403.56;4988244;28;20113;-66
2022/03/31 00:06:13;;;;;;;6.75;3.63;;;;;;;1.00;100.00;100392.34;4988130;28;20690;-66
2022/03/31 00:08:38;;;;;;;8.23;4.28;;;;;;;0.95;100.00;100388.94;4989859;28;20121;-68
2022/03/31 00:11:04;;;;;;;6.93;4.32;;;;;;;1.00;100.00;100394.09;5003949;28;20030;-65
2022/03/31 00:13:30;;;;;;;7.43;4.35;;;;;;;0.93;100.00;100390.69;4984358;28;20493;-65
2022/03/31 00:15:58;;;;;;;7.75;4.47;;;;;;;0.98;100.00;100384.56;4987721;28;20084;-65
2022/03/31 00:18:26;;;;;;;6.32;4.25;;;;;;;1.10;100.00;100396.56;4985460;28;20105;-65
2022/03/31 00:20:51;;;;;;;8.65;4.70;;;;;;;1.02;100.00;100398.41;4990640;28;20073;-65
2022/03/31 00:23:17;;;;;;;7.97;4.53;;;;;;;0.89;100.00;100397.69;4987820;28;20462;-65
2022/03/31 00:25:43;;;;;;;7.57;4.75;;;;;;;0.89;100.00;100386.41;4987765;28;20042;-65
2022/03/31 00:28:08;;;;;;;8.57;4.72;;;;;;;0.90;100.00;100383.78;4988755;28;20552;-65
2022/03/31 00:30:34;;;;;;;7.25;4.88;;;;;;;0.94;100.00;100384.59;4987099;28;20113;-64
2022/03/31 00:33:00;;;;;;;7.68;4.85;;;;;;;0.97;100.00;100382.84;4989865;28;20054;-65
2022/03/31 00:35:26;;;;;;;6.90;4.40;;;;;;;0.96;100.00;100380.25;4987634;28;20073;-65
2022/03/31 00:37:51;;;;;;;7.68;4.28;;;;;;;1.04;100.00;100380.16;4986768;28;20022;-65
2022/03/31 00:40:19;;;;;;;6.25;3.55;;;;;;;1.05;100.00;100374.91;4988164;28;20034;-65
2022/03/31 00:42:54;;;;;;;5.90;4.00;;;;;;;1.03;100.00;100374.06;4988737;28;20026;-66
2022/03/31 00:45:25;;;;;;;6.40;3.90;;;;;;;1.16;100.00;100373.91;4992799;28;20493;-67
2022/03/31 00:47:51;;;;;;;5.55;3.80;;;;;;;1.20;100.00;100366.00;4991499;28;20035;-67
2022/03/31 00:50:17;;;;;;;6.75;3.60;;;;;;;1.09;100.00;100375.72;4990874;28;20026;-66
2022/03/31 00:52:43;;;;;;;6.07;3.65;;;;;;;1.10;100.00;100385.25;4990527;28;20552;-66
2022/03/31 00:55:11;;;;;;;6.95;3.85;;;;;;;0.93;100.00;100367.22;4992304;28;20064;-65
2022/03/31 00:57:37;;;;;;;7.65;4.20;;;;;;;0.96;100.00;100368.06;4987313;28;20112;-66
2022/03/31 01:00:08;;;;;;;5.95;3.95;;;;;;;0.98;100.00;100374.13;4990460;28;20034;-67
2022/03/31 01:02:35;;;;;;;6.13;3.73;;;;;;;0.89;100.00;100368.16;4953154;28;20402;-67
2022/03/31 01:05:01;;;;;;;7.85;3.65;;;;;;;0.87;100.00;100368.19;4991003;28;20061;-66
2022/03/31 01:07:27;;;;;;;6.93;3.85;;;;;;;0.92;100.00;100361.16;4952279;28;20039;-66
2022/03/31 01:09:54;;;;;;;6.22;4.25;;;;;;;0.85;100.00;100359.50;4984341;28;20042;-66
2022/03/31 01:12:19;;;;;;;7.45;4.07;;;;;;;0.78;100.00;100366.56;4984590;28;20502;-66
2022/03/31 01:14:45;;;;;;;7.03;4.32;;;;;;;0.81;100.00;100350.84;4986998;28;20030;-67
2022/03/31 01:17:10;;;;;;;9.35;4.32;;;;;;;0.83;100.00;100361.25;4991004;28;20193;-66
2022/03/31 01:19:36;;;;;;;7.18;4.50;;;;;;;0.73;100.00;100352.72;4964187;28;20416;-66
2022/03/31 01:22:01;;;;;;;8.23;4.60;;;;;;;0.67;100.00;100346.72;4988789;28;20034;-66
2022/03/31 01:24:27;;;;;;;6.68;4.28;;;;;;;0.67;100.00;100349.31;4989144;28;20038;-66
2022/03/31 01:26:52;;;;;;;7.82;4.85;;;;;;;0.67;100.00;100344.97;5003990;28;20034;-66
2022/03/31 01:29:17;;;;;;;7.88;4.55;;;;;;;0.78;100.00;100353.53;4988527;28;20044;-65
2022/03/31 01:31:43;;;;;;;6.75;4.43;;;;;;;0.72;100.00;100342.31;4992303;28;20465;-66
2022/03/31 01:34:08;;;;;;;7.28;4.47;;;;;;;0.63;100.00;100346.75;4988695;28;20031;-65
2022/03/31 01:36:37;;;;;;;8.50;4.50;;;;;;;0.60;100.00;100341.59;4989887;28;20015;-66
2022/03/31 01:39:04;;;;;;;7.47;4.88;;;;;;;0.66;100.00;100338.03;4989126;28;20030;-66
2022/03/31 01:41:29;;;;;;;6.72;4.63;;;;;;;0.73;100.00;100326.66;4988105;28;20477;-66
2022/03/31 01:43:55;;;;;;;7.80;4.40;;;;;;;0.81;100.00;100323.94;4987797;28;20080;-65
2022/03/31 01:46:20;;;;;;;9.15;4.32;;;;;;;0.85;100.00;100327.38;4991555;28;20065;-65
2022/03/31 01:48:46;;;;;;;6.55;4.43;;;;;;;0.79;100.00;100326.59;4989185;28;20133;-66
2022/03/31 01:51:12;;;;;;;7.40;4.78;;;;;;;0.74;100.00;100336.19;4992468;28;20031;-66
2022/03/31 01:53:39;;;;;;;9.32;4.97;;;;;;;0.65;100.00;100329.34;4984502;28;20037;-68
2022/03/31 01:56:06;;;;;;;8.15;5.00;;;;;;;0.60;100.00;100325.94;4987678;28;20482;-65
2022/03/31 01:58:32;;;;;;;9.60;5.65;;;;;;;0.58;100.00;100322.47;4989144;28;20436;-64
2022/03/31 02:00:58;;;;;;;8.95;5.60;;;;;;;0.63;100.00;100319.84;4991496;28;20035;-65
2022/03/31 02:03:24;;;;;;;9.70;5.38;;;;;;;0.62;100.00;100321.56;4970369;28;20034;-65
2022/03/31 02:05:50;;;;;;;7.90;4.68;;;;;;;0.55;100.00;100316.44;4984011;28;21116;-67
2022/03/31 02:08:19;;;;;;;9.23;5.55;;;;;;;0.53;100.00;100324.28;4978520;28;20474;-66
2022/03/31 02:10:44;;;;;;;9.30;5.43;;;;;;;0.54;100.00;100314.72;4983509;28;20030;-66
2022/03/31 02:13:10;;;;;;;9.60;5.75;;;;;;;0.57;100.00;100323.34;4991763;28;20035;-66
2022/03/31 02:15:35;;;;;;;9.27;5.30;;;;;;;0.60;100.00;100314.63;4991511;28;20026;-65
2022/03/31 02:18:02;;;;;;;9.35;5.35;;;;;;;0.65;100.00;100312.84;4945930;28;1235115;-66
2022/03/31 02:20:30;;;;;;;7.47;4.72;;;;;;;0.64;100.00;100314.59;5005681;28;20053;-66
2022/03/31 02:23:00;;;;;;;10.10;4.90;;;;;;;0.63;100.00;100318.06;4988011;28;20036;-67
2022/03/31 02:25:26;;;;;;;8.43;5.13;;;;;;;0.63;100.00;100318.06;4986665;28;20038;-66
2022/03/31 02:27:52;;;;;;;8.65;5.18;;;;;;;0.64;100.00;100312.00;4988797;28;20034;-65
2022/03/31 02:30:18;;;;;;;9.10;4.88;;;;;;;0.64;100.00;100325.03;4984153;28;20060;-65
2022/03/31 02:32:44;;;;;;;7.97;5.03;;;;;;;0.65;100.00;100318.94;4988194;28;20481;-65
2022/03/31 02:35:09;;;;;;;8.48;4.78;;;;;;;0.60;100.00;100302.50;4984964;28;20041;-66
2022/03/31 02:37:35;;;;;;;9.32;4.63;;;;;;;0.62;100.00;100297.25;4990228;28;20045;-66
2022/03/31 02:40:01;;;;;;;7.45;4.28;;;;;;;0.64;100.00;100293.75;4984958;28;20030;-65
2022/03/31 02:42:26;;;;;;;8.30;4.22;;;;;;;0.69;100.00;100288.50;4988773;28;20030;-66
2022/03/31 02:44:52;;;;;;;8.82;4.03;;;;;;;0.63;100.00;100273.78;4987552;28;20105;-67
2022/03/31 02:47:17;;;;;;;9.02;4.53;;;;;;;0.69;100.00;100285.00;4997759;28;20120;-66
2022/03/31 02:49:43;;;;;;;7.13;3.97;;;;;;;0.71;100.00;100289.31;5002869;28;20069;-66
2022/03/31 02:52:09;;;;;;;7.60;3.85;;;;;;;0.73;100.00;100284.94;4989622;28;20066;-65
2022/03/31 02:57:18;;;;;;;6.80;3.60;;;;;;;0.74;100.00;100281.47;4980698;28;20093;-68
2022/03/31 02:59:45;;;;;;;6.30;4.07;;;;;;;0.77;100.00;100278.81;4987308;28;20037;-66
2022/03/31 03:02:10;;;;;;;6.45;3.65;;;;;;;0.76;100.00;100279.69;4983863;28;20489;-65
2022/03/31 03:04:35;;;;;;;7.70;4.32;;;;;;;0.79;100.00;100274.44;4986024;28;20089;-66
2022/03/31 03:07:01;;;;;;;8.63;4.20;;;;;;;0.78;100.00;100261.41;5002639;28;21460;-67
2022/03/31 03:09:27;;;;;;;9.82;4.80;;;;;;;0.81;100.00;100275.28;4987910;28;20027;-67
2022/03/31 03:11:52;;;;;;;8.70;4.22;;;;;;;0.82;100.00;100263.97;4985586;28;20034;-65
2022/03/31 03:14:17;;;;;;;9.32;4.28;;;;;;;0.87;100.00;100261.31;4985009;28;20042;-66
2022/03/31 03:16:44;;;;;;;8.85;4.93;;;;;;;0.85;100.00;100264.81;4987525;28;20077;-65
2022/03/31 03:19:10;;;;;;;9.52;4.75;;;;;;;0.86;100.00;100259.59;4980100;28;20054;-66
2022/03/31 03:21:36;;;;;;;8.40;4.97;;;;;;;0.91;100.00;100264.72;4981320;28;20482;-66
2022/03/31 03:24:02;;;;;;;11.13;4.47;;;;;;;0.95;100.00;100263.81;4991648;28;20034;-66
2022/03/31 03:26:28;;;;;;;9.80;4.75;;;;;;;0.98;100.00;100255.94;4990689;28;20058;-66
2022/03/31 03:28:54;;;;;;;8.35;4.78;;;;;;;0.96;100.00;100260.31;4969368;28;20116;-67
2022/03/31 03:31:20;;;;;;;10.48;5.22;;;;;;;1.01;100.00;100260.22;4987960;28;20101;-65
2022/03/31 03:33:46;;;;;;;11.20;5.25;;;;;;;1.05;100.00;100261.91;4988470;28;20018;-65
2022/03/31 03:36:12;;;;;;;8.77;4.95;;;;;;;1.03;100.00;100272.38;4990140;28;20018;-67
2022/03/31 03:38:40;;;;;;;13.05;5.93;;;;;;;1.09;100.00;100279.25;4988762;28;20065;-66
2022/03/31 03:41:07;;;;;;;11.55;6.18;;;;;;;1.09;100.00;100274.88;4989903;28;20081;-66
2022/03/31 03:43:32;;;;;;;11.25;6.57;;;;;;;1.10;100.00;100268.78;4988790;28;20026;-66
2022/03/31 03:45:58;;;;;;;13.30;6.90;;;;;;;1.13;100.00;100266.13;4980312;28;21079;-66
2022/03/31 03:48:23;;;;;;;12.35;7.43;;;;;;;1.13;100.00;100262.66;4982533;28;20053;-66
2022/03/31 03:50:48;;;;;;;12.18;6.20;;;;;;;1.16;100.00;100267.81;4981861;28;20109;-67
2022/03/31 03:53:14;;;;;;;13.32;6.47;;;;;;;1.20;100.00;100264.28;4986354;28;20057;-67
2022/03/31 03:55:40;;;;;;;11.15;6.22;;;;;;;1.24;100.00;100257.28;4987481;28;20026;-66
2022/03/31 03:58:06;;;;;;;11.90;6.13;;;;;;;1.28;100.00;100258.97;4985860;28;20042;-67
2022/03/31 04:00:31;;;;;;;12.40;6.30;;;;;;;1.27;100.00;100263.31;4986071;28;20019;-66
2022/03/31 04:02:57;;;;;;;10.70;5.95;;;;;;;1.28;100.00;100267.63;5004818;28;20402;-66
2022/03/31 04:05:23;;;;;;;11.77;5.97;;;;;;;1.33;100.00;100264.09;4989284;28;20034;-67
2022/03/31 04:07:48;;;;;;;13.45;6.10;;;;;;;1.38;100.00;100264.88;4985649;28;20031;-67
2022/03/31 04:10:14;;;;;;;10.38;5.95;;;;;;;1.39;100.00;100259.63;4982858;28;20030;-66
2022/03/31 04:12:39;;;;;;;9.27;5.63;;;;;;;1.44;100.00;100262.19;4984569;28;20030;-66
2022/03/31 04:15:06;;;;;;;10.77;5.30;;;;;;;1.42;100.00;100261.31;4981829;28;20060;-66
2022/03/31 04:17:32;;;;;;;9.13;5.18;;;;;;;1.43;100.00;100265.66;5002898;28;20038;-66
2022/03/31 04:19:58;;;;;;;9.43;5.25;;;;;;;1.46;100.00;100266.47;4988305;28;20477;-66
2022/03/31 04:22:23;;;;;;;11.98;5.22;;;;;;;1.51;100.00;100268.16;4987978;28;20037;-67
2022/03/31 04:24:49;;;;;;;9.30;5.18;;;;;;;1.51;100.00;100262.94;4986209;28;20078;-66
2022/03/31 04:27:14;;;;;;;9.10;5.20;;;;;;;1.54;100.00;100255.91;4982386;28;20445;-65
2022/03/31 04:29:40;;;;;;;12.93;4.93;;;;;;;1.55;100.00;100255.03;4970187;28;20038;-65
2022/03/31 04:32:06;;;;;;;9.18;5.10;;;;;;;1.59;100.00;100251.47;4985402;28;20445;-65
2022/03/31 04:34:31;;;;;;;12.77;5.28;;;;;;;1.60;100.00;100253.19;4953408;28;20459;-65
2022/03/31 04:36:56;;;;;;;9.38;5.22;;;;;;;1.61;100.00;100248.84;5000762;28;20026;-65
2022/03/31 04:39:22;;;;;;;7.35;4.45;;;;;;;1.63;100.00;100255.75;4986644;28;20373;-65
2022/03/31 04:41:47;;;;;;;10.98;5.70;;;;;;;1.67;100.00;100250.50;4981737;28;20034;-65
2022/03/31 04:44:13;;;;;;;11.35;5.70;;;;;;;1.71;100.00;100252.16;4981355;28;20034;-65
2022/03/31 04:46:39;;;;;;;13.95;5.68;;;;;;;1.79;100.00;100231.97;4987340;28;20037;-65
2022/03/31 04:49:05;;;;;;;7.72;4.90;;;;;;;1.81;100.00;100240.66;4985022;28;20030;-65
2022/03/31 04:51:30;;;;;;;9.50;4.07;;;;;;;1.81;100.00;100235.44;4987793;28;20053;-65
2022/03/31 04:53:56;;;;;;;8.88;4.60;;;;;;;1.84;100.00;100243.19;4982757;28;20447;-66
2022/03/31 04:56:22;;;;;;;10.10;4.53;;;;;;;1.82;100.00;100237.16;4987224;28;20022;-66
2022/03/31 04:58:47;;;;;;;7.88;4.68;;;;;;;1.81;100.00;100235.44;5001181;28;20027;-66
2022/03/31 05:01:12;;;;;;;8.00;3.92;;;;;;;1.83;100.00;100238.00;4982103;28;20069;-66
2022/03/31 05:03:39;;;;;;;9.30;3.65;;;;;;;1.85;100.00;100246.69;4988923;28;20118;-66
2022/03/31 05:06:08;;;;;;;10.02;3.03;;;;;;;1.83;100.00;100244.09;4986669;28;20038;-66
2022/03/31 05:08:34;;;;;;;12.73;3.45;;;;;;;1.78;100.00;100251.16;4978006;28;20034;-65
2022/03/31 05:10:59;;;;;;;7.38;2.83;;;;;;;1.79;100.00;100247.63;4988295;28;20042;-65
2022/03/31 05:13:25;;;;;;;6.93;2.83;;;;;;;1.81;100.00;100235.44;4987931;28;20031;-65
2022/03/31 05:15:51;;;;;;;6.30;2.97;;;;;;;1.79;100.00;100237.19;4980734;28;20030;-66
2022/03/31 05:18:17;;;;;;;8.13;3.30;;;;;;;1.83;100.00;100238.00;4985436;28;20054;-65
2022/03/31 05:20:43;;;;;;;11.20;3.30;;;;;;;1.82;100.00;100237.16;4987150;28;20036;-67
2022/03/31 05:23:12;;;;;;;8.38;3.20;;;;;;;1.82;100.00;100233.66;4984872;28;20035;-68
2022/03/31 05:25:38;;;;;;;6.85;2.95;;;;;;;1.80;100.00;100238.94;4986733;28;20089;-67
2022/03/31 05:28:04;;;;;;;10.40;3.90;;;;;;;1.82;100.00;100245.00;5001889;28;20382;-65
2022/03/31 05:30:29;;;;;;;5.68;3.20;;;;;;;1.87;100.00;100243.16;4989908;28;20035;-66
2022/03/31 05:32:54;;;;;;;9.95;4.15;;;;;;;1.88;100.00;100239.66;4991206;28;20034;-67
2022/03/31 05:35:21;;;;;;;11.65;4.47;;;;;;;1.92;100.00;100240.47;4991287;28;20034;-67
2022/03/31 05:37:47;;;;;;;10.00;4.88;;;;;;;1.92;100.00;100245.69;4989157;28;20030;-66
2022/03/31 05:40:14;;;;;;;8.07;4.80;;;;;;;1.96;100.00;100239.53;4988224;28;20386;-66
2022/03/31 05:42:40;;;;;;;9.70;4.95;;;;;;;1.98;100.00;100242.09;4986003;28;20041;-66
2022/03/31 05:45:09;;;;;;;9.40;5.07;;;;;;;2.02;100.00;100233.31;4986658;28;20030;-66
2022/03/31 05:47:35;;;;;;;9.93;4.82;;;;;;;2.05;100.00;100222.81;4984395;28;20133;-66
2022/03/31 05:50:00;;;;;;;10.63;5.45;;;;;;;2.07;100.00;100226.25;4990719;28;20113;-66
2022/03/31 05:52:26;;;;;;;12.23;5.05;;;;;;;2.07;100.00;100221.88;4984822;28;20448;-66
2022/03/31 05:54:51;;;;;;;10.68;5.47;;;;;;;2.03;100.00;100222.81;4981553;28;20053;-66
2022/03/31 05:57:17;;;;;;;10.88;5.10;;;;;;;1.99;100.00;100222.94;5004952;28;20027;-66
2022/03/31 05:59:42;;;;;;;12.50;5.38;;;;;;;1.97;100.00;100225.56;4987308;28;20030;-66
2022/03/31 06:02:09;;;;;;;10.27;5.43;;;;;;;1.92;100.00;100223.03;4986394;28;20038;-66
2022/03/31 06:04:35;;;;;;;10.15;5.60;;;;;;;1.90;100.00;100221.34;4990362;28;20056;-67
2022/03/31 06:07:00;;;;;;;12.52;5.88;;;;;;;1.88;100.00;100224.00;4989703;28;20066;-67
2022/03/31 06:09:25;;;;;;;9.23;5.70;;;;;;;1.88;100.00;100218.78;5002226;28;20114;-67
2022/03/31 06:11:51;;;;;;;14.15;6.45;;;;;;;1.90;100.00;100216.97;4984588;28;20112;-68
2022/03/31 06:14:16;;;;;;;15.00;6.35;;;;;;;1.90;100.00;100221.34;4985085;28;20053;-68
2022/03/31 06:16:41;;;;;;;13.93;6.18;;;;;;;1.90;100.00;100218.75;4990251;28;20069;-67
2022/03/31 06:19:08;;;;;;;15.18;6.72;;;;;;;1.90;100.00;100226.56;4989065;28;20445;-68
2022/03/31 06:21:34;;;;;;;12.48;6.60;;;;;;;1.94;100.00;100216.06;4988425;28;20100;-67
2022/03/31 06:24:00;;;;;;;15.68;6.00;;;;;;;1.94;100.00;100228.22;4987598;28;20159;-67
2022/03/31 06:26:26;;;;;;;13.18;5.25;;;;;;;1.94;100.00;100225.63;4988248;28;20162;-67
2022/03/31 06:28:51;;;;;;;11.45;5.30;;;;;;;1.96;100.00;100227.31;4987518;28;20218;-67
2022/03/31 06:31:17;;;;;;;9.15;4.63;;;;;;;1.98;100.00;100234.25;5004724;28;20026;-67
2022/03/31 06:33:42;;;;;;;9.90;5.13;;;;;;;2.05;100.00;100228.88;4988140;28;20121;-67
2022/03/31 06:36:08;;;;;;;12.60;4.65;;;;;;;2.10;100.00;100232.25;4987820;28;20062;-67
2022/03/31 06:38:33;;;;;;;16.48;5.75;;;;;;;2.19;100.00;100238.22;4990415;28;20120;-67
2022/03/31 06:41:10;;;;;;;7.18;3.90;;;;;;;2.26;100.00;100238.06;4985542;28;20038;-68
2022/03/31 06:43:38;;;;;;;8.27;4.20;;;;;;;2.29;100.00;100243.22;4989593;28;20037;-67
2022/03/31 06:46:04;;;;;;;9.88;4.53;;;;;;;2.36;100.00;100243.94;4986453;28;20035;-67
2022/03/31 06:48:30;;;;;;;6.78;3.60;;;;;;;2.36;100.00;100240.47;4987190;28;20490;-68
2022/03/31 06:50:59;;;;;;;6.95;3.50;;;;;;;2.46;100.00;100237.63;4988250;28;20065;-67
2022/03/31 06:53:25;;;;;;;9.05;3.80;;;;;;;2.52;100.00;100236.66;4984975;28;20034;-68
2022/03/31 06:55:51;;;;;;;11.05;3.83;;;;;;;2.62;100.00;100224.22;4980994;28;20040;-66
2022/03/31 06:58:17;;;;;;;5.63;3.53;;;;;;;2.74;100.00;100220.50;4988760;28;20018;-68
2022/03/31 07:00:43;;;;;;;7.53;3.72;;;;;;;2.90;100.00;100221.88;4984113;28;20038;-68
2022/03/31 07:03:08;;;;;;;11.50;4.03;;;;;;;2.91;100.00;100223.56;4987645;28;20026;-67
2022/03/31 07:05:38;;;;;;;7.07;3.30;;;;;;;3.00;100.00;100222.50;5005249;28;20132;-68
2022/03/31 07:08:04;;;;;;;7.25;3.35;;;;;;;2.94;100.00;100233.97;4976808;28;20040;-67
2022/03/31 07:10:30;;;;;;;6.30;3.72;;;;;;;3.07;100.00;100229.31;4991536;28;20048;-67
2022/03/31 07:12:55;;;;;;;8.18;3.60;;;;;;;3.14;100.00;100224.78;5010433;28;20022;-68
2022/03/31 07:15:21;;;;;;;8.70;3.70;;;;;;;3.35;100.00;100220.81;4966167;28;20677;-68
2022/03/31 07:17:46;;;;;;;6.95;3.47;;;;;;;3.30;100.00;100217.44;4989220;28;20113;-67
2022/03/31 07:20:11;;;;;;;7.80;3.38;;;;;;;3.40;100.00;100225.91;4989269;28;20453;-67
2022/03/31 07:22:45;;;;;;;7.07;3.42;;;;;;;3.49;100.00;100225.69;4996099;28;20041;-67
2022/03/31 07:25:10;;;;;;;7.38;4.00;;;;;;;3.37;100.00;100226.84;4993606;28;20034;-65
2022/03/31 07:27:36;;;;;;;8.02;3.83;;;;;;;3.47;100.00;100232.72;5006285;28;20041;-67
2022/03/31 07:30:01;;;;;;;7.07;3.83;;;;;;;3.52;100.00;100228.22;5017217;28;20089;-67
2022/03/31 07:32:27;;;;;;;5.45;3.53;;;;;;;3.55;100.00;100238.59;4994637;28;20031;-67
2022/03/31 07:34:52;;;;;;;10.50;4.68;;;;;;;3.58;100.00;100224.56;4984784;28;20038;-67
2022/03/31 07:37:17;;;;;;;5.80;3.80;;;;;;;3.66;100.00;100220.00;4977397;28;20030;-67
2022/03/31 07:39:45;;;;;;;7.10;3.65;;;;;;;3.50;100.00;100235.25;4992728;28;20035;-66
2022/03/31 07:42:11;;;;;;;7.72;3.67;;;;;;;3.51;100.00;100231.72;4975342;28;20030;-66
2022/03/31 07:44:37;;;;;;;8.23;3.58;;;;;;;3.44;100.00;100228.41;5001011;28;20038;-66
2022/03/31 07:47:03;;;;;;;10.02;4.22;;;;;;;3.44;100.00;100230.19;4982522;28;20041;-66
2022/03/31 07:49:28;;;;;;;5.20;3.40;;;;;;;3.32;100.00;100223.47;4994073;28;20038;-66
2022/03/31 07:51:53;;;;;;;8.43;3.45;;;;;;;3.36;100.00;100232.97;5002711;28;20079;-66
2022/03/31 07:54:19;;;;;;;8.60;3.90;;;;;;;3.34;100.00;100224.31;4993865;28;20046;-66
2022/03/31 07:56:45;;;;;;;6.25;4.03;;;;;;;3.37;100.00;100226.84;4996570;28;20172;-67
2022/03/31 07:59:11;;;;;;;6.95;3.80;;;;;;;3.43;100.00;100229.31;4995008;28;20452;-66
2022/03/31 08:01:37;;;;;;;8.25;3.63;;;;;;;3.55;100.00;100219.44;4980706;28;20031;-68
2022/03/31 08:04:05;;;;;;;7.18;3.80;;;;;;;3.81;100.00;100223.13;4992515;28;20477;-67
2022/03/31 08:06:30;;;;;;;5.97;3.40;;;;;;;4.02;100.00;100217.28;5001348;28;20048;-67
2022/03/31 08:08:56;;;;;;;6.25;3.63;;;;;;;4.29;100.00;100212.19;5012338;28;20482;-66
2022/03/31 08:11:21;;;;;;;5.13;3.20;;;;;;;4.49;100.00;100215.97;4992379;28;20030;-66
2022/03/31 08:13:47;;;;;;;5.63;3.60;;;;;;;4.49;99.35;100216.84;4992179;28;20386;-66
2022/03/31 08:16:12;;;;;;;7.35;3.70;;;;;;;4.74;99.71;100213.47;4989987;28;20389;-65
2022/03/31 08:18:38;;;;;;;5.13;3.38;;;;;;;4.73;97.22;100212.63;4984438;28;20031;-65
2022/03/31 08:21:05;;;;;;;3.75;3.00;;;;;;;4.80;97.30;100209.81;4988243;28;20031;-67
2022/03/31 08:23:31;;;;;;;5.25;3.40;;;;;;;5.05;98.19;100207.25;4973208;28;20031;-66
2022/03/31 08:25:56;;;;;;;6.97;3.38;;;;;;;5.40;95.76;100211.34;4986678;28;20027;-66
2022/03/31 08:28:22;;;;;;;5.13;2.88;;;;;;;5.17;92.76;100196.38;4991809;28;20421;-66
2022/03/31 08:30:48;;;;;;;6.57;3.30;;;;;;;5.16;95.03;100209.53;4974407;28;20061;-66
2022/03/31 08:33:13;;;;;;;5.82;3.35;;;;;;;5.18;93.98;100199.84;4991868;28;20038;-66
2022/03/31 08:35:39;;;;;;;7.63;3.50;;;;;;;5.49;95.68;100206.72;4992120;28;20093;-66
2022/03/31 08:38:04;;;;;;;5.03;3.30;;;;;;;5.52;92.83;100212.69;4963010;28;20023;-66
2022/03/31 08:40:30;;;;;;;5.95;2.95;;;;;;;5.20;92.35;100213.78;5027028;28;20034;-66
2022/03/31 08:42:55;;;;;;;4.13;3.30;;;;;;;4.84;92.84;100219.31;4991075;28;20106;-67
2022/03/31 08:45:21;;;;;;;4.10;3.10;;;;;;;4.59;93.68;100210.41;4993054;28;20440;-67
2022/03/31 08:47:50;;;;;;;5.15;2.90;;;;;;;4.68;95.52;100209.28;4994182;28;20371;-67
2022/03/31 08:50:17;;;;;;;4.18;2.83;;;;;;;4.92;93.19;100210.28;5004727;28;20065;-67
2022/03/31 08:52:43;;;;;;;4.93;3.40;;;;;;;4.74;93.20;100211.72;4982111;28;20025;-67
2022/03/31 08:55:09;;;;;;;5.78;2.97;;;;;;;5.07;94.04;100205.44;5006316;28;20030;-67
2022/03/31 08:57:50;;;;;;;5.50;3.33;;;;;;;4.99;90.65;100212.72;4991913;28;20030;-68
2022/03/31 09:00:16;;;;;;;4.80;3.22;;;;;;;4.77;89.49;100216.00;4991146;28;20057;-67
2022/03/31 09:02:52;;;;;;;5.13;3.17;;;;;;;4.69;92.08;100207.50;4988002;28;20085;-68
2022/03/31 09:05:17;;;;;;;4.82;3.10;;;;;;;4.84;92.64;100203.56;4991521;28;20038;-67
2022/03/31 09:07:57;;;;;;;4.40;3.10;;;;;;;4.68;92.13;100205.78;5024329;28;20513;-68
2022/03/31 09:10:37;;;;;;;5.47;3.30;;;;;;;4.63;91.77;100207.69;4997578;28;20435;-67
2022/03/31 09:13:05;;;;;;;5.07;3.53;;;;;;;4.55;92.46;100216.66;4993947;28;20034;-66
2022/03/31 09:15:31;;;;;;;4.80;3.47;;;;;;;4.37;93.18;100212.81;4977978;28;20022;-66
2022/03/31 09:17:58;;;;;;;4.75;3.10;;;;;;;4.11;92.86;100213.56;4987956;28;20047;-66
2022/03/31 09:20:38;;;;;;;5.45;3.30;;;;;;;4.19;93.60;100210.72;4996185;28;20034;-66
2022/03/31 09:23:04;;;;;;;4.68;3.22;;;;;;;4.26;93.29;100214.91;4994533;28;20125;-66
2022/03/31 09:25:29;;;;;;;4.35;3.25;;;;;;;4.35;94.05;100211.13;4995129;28;20114;-67
2022/03/31 09:27:56;;;;;;;4.07;3.10;;;;;;;4.64;94.94;100205.00;4994846;28;20030;-66
2022/03/31 09:30:24;;;;;;;5.32;3.10;;;;;;;4.97;92.69;100209.28;4998864;28;20061;-67
2022/03/31 09:32:51;;;;;;;3.97;2.97;;;;;;;4.71;90.37;100210.94;4995074;28;20026;-67
2022/03/31 09:35:21;;;;;;;3.28;2.70;;;;;;;4.63;91.50;100215.56;4994695;28;20464;-67
2022/03/31 09:37:49;;;;;;;4.75;2.80;;;;;;;4.59;92.60;100213.03;4989840;28;21582;-66
2022/03/31 09:40:16;;;;;;;4.65;2.92;;;;;;;4.52;91.20;100213.28;4998399;28;20046;-66
2022/03/31 09:42:41;;;;;;;4.50;2.95;;;;;;;4.53;92.73;100218.47;5007437;28;20033;-67
2022/03/31 09:45:08;;;;;;;4.07;2.70;;;;;;;4.54;92.93;100211.44;4999543;28;20026;-67
2022/03/31 09:47:44;;;;;;;3.83;2.75;;;;;;;4.54;92.04;100209.69;4994928;28;20037;-66
2022/03/31 09:50:10;;;;;;;3.80;2.80;;;;;;;4.55;91.25;100200.06;5022713;28;20045;-65
2022/03/31 09:52:37;;;;;;;4.55;3.40;;;;;;;4.45;90.37;100198.63;4994250;28;20018;-66
2022/03/31 09:55:03;;;;;;;5.20;3.40;;;;;;;4.52;91.42;100197.53;4990677;28;20037;-66
2022/03/31 09:57:30;;;;;;;4.47;3.10;;;;;;;4.65;90.71;100192.78;4975334;28;20038;-67
2022/03/31 09:59:56;;;;;;;4.53;2.85;;;;;;;5.04;91.89;100190.66;4986286;28;20450;-67
2022/03/31 10:02:22;;;;;;;4.03;3.20;;;;;;;5.46;90.23;100191.03;4999747;28;20041;-69
2022/03/31 10:04:48;;;;;;;3.38;2.80;;;;;;;5.54;87.53;100181.16;5009223;28;20029;-68
2022/03/31 10:07:15;;;;;;;3.65;2.80;;;;;;;5.73;86.56;100184.84;5000579;28;20121;-67
2022/03/31 10:09:44;;;;;;;5.18;2.70;;;;;;;6.21;84.68;100182.28;4996563;28;20386;-66
2022/03/31 10:12:21;;;;;;;4.68;3.05;;;;;;;6.22;83.05;100181.38;4996084;28;20061;-66
2022/03/31 10:15:01;;;;;;;4.38;2.85;;;;;;;6.40;83.36;100183.28;4995873;28;20030;-66
2022/03/31 10:17:28;;;;;;;2.65;2.35;;;;;;;6.38;81.59;100179.88;4993801;28;20058;-66
2022/03/31 10:20:07;;;;;;;4.25;2.80;;;;;;;6.17;83.54;100173.66;4982811;28;20026;-66
2022/03/31 10:25:17;;;;;;;3.85;2.90;;;;;;;6.20;82.05;100184.06;4994487;28;20519;-66
2022/03/31 10:27:49;;;;;;;3.28;2.72;;;;;;;6.42;81.27;100179.75;4986907;28;20026;-66
2022/03/31 10:30:25;;;;;;;3.75;2.75;;;;;;;6.70;82.20;100180.41;4994096;28;20038;-66
2022/03/31 10:33:03;;;;;;;3.25;2.75;;;;;;;6.50;79.40;100177.72;4976100;28;20088;-67
2022/03/31 10:35:36;;;;;;;3.22;2.60;;;;;;;6.58;81.25;100174.78;4994004;28;20041;-67
2022/03/31 10:38:18;;;;;;;3.85;2.60;;;;;;;6.55;78.89;100183.66;4992722;28;20531;-68
2022/03/31 10:40:45;;;;;;;2.90;2.45;;;;;;;6.25;78.66;100175.16;4976369;28;20035;-67
2022/03/31 10:43:28;;;;;;;3.28;2.60;;;;;;;5.96;79.40;100162.16;4993646;28;20441;-66
2022/03/31 10:45:56;;;;;;;3.38;2.58;;;;;;;5.87;80.83;100175.59;4990730;28;20061;-65
2022/03/31 10:48:27;;;;;;;3.72;2.60;;;;;;;6.10;83.40;100171.31;4993625;28;20018;-67
2022/03/31 10:51:07;;;;;;;3.28;2.53;;;;;;;6.57;81.17;100168.66;4985684;28;20054;-67
2022/03/31 10:53:35;;;;;;;3.15;2.50;;;;;;;6.36;78.27;100158.03;4985583;28;20037;-67
2022/03/31 10:56:03;;;;;;;3.35;2.58;;;;;;;6.28;79.57;100165.38;4993219;28;20445;-68
2022/03/31 10:58:30;;;;;;;3.70;2.50;;;;;;;6.29;80.13;100146.06;4992564;28;20080;-66
2022/03/31 11:00:58;;;;;;;3.80;2.70;;;;;;;6.63;79.37;100155.25;4975651;28;20063;-67
2022/03/31 11:03:23;;;;;;;5.18;2.80;;;;;;;6.88;79.09;100155.13;4992222;28;20034;-66
2022/03/31 11:05:50;;;;;;;3.70;2.63;;;;;;;6.77;77.16;100152.06;4992606;28;20100;-66
2022/03/31 11:08:19;;;;;;;2.88;2.33;;;;;;;6.80;77.02;100157.19;4992893;28;20030;-67
2022/03/31 11:10:52;;;;;;;3.30;2.50;;;;;;;6.43;77.04;100152.56;4993180;28;20453;-66
2022/03/31 11:13:20;;;;;;;5.15;2.83;;;;;;;6.20;77.18;100152.53;4993383;28;20065;-68
2022/03/31 11:16:05;;;;;;;3.42;2.50;;;;;;;6.03;78.12;100150.50;4991910;28;20030;-67
2022/03/31 11:18:30;;;;;;;4.35;3.00;;;;;;;6.25;78.60;100152.31;4990257;28;20101;-66
2022/03/31 11:20:58;;;;;;;3.55;3.00;;;;;;;6.39;80.06;100152.69;4993393;28;20042;-65
2022/03/31 11:23:25;;;;;;;6.68;3.38;;;;;;;6.43;79.12;100148.13;4970616;28;20018;-66
2022/03/31 11:25:51;;;;;;;4.00;2.75;;;;;;;6.23;78.71;100149.75;4991968;28;20033;-66
2022/03/31 11:28:17;;;;;;;3.70;2.85;;;;;;;6.37;79.90;100143.97;4990236;28;20034;-67
2022/03/31 11:30:43;;;;;;;4.13;3.03;;;;;;;6.14;79.28;100138.72;4988779;28;20049;-67